createdAt,value
2022-08-12T00:01:14.138Z,27.44
2022-08-12T00:06:21.313Z,27.36
2022-08-12T00:11:28.572Z,27.31
2022-08-12T00:16:35.768Z,27.27
2022-08-12T00:21:42.962Z,27.11
2022-08-12T00:26:50.177Z,26.99
2022-08-12T00:31:57.336Z,27.00
2022-08-12T00:37:13.097Z,26.87
2022-08-12T00:42:11.851Z,26.76
2022-08-12T00:47:24.669Z,26.63
2022-08-12T00:52:26.144Z,26.51
2022-08-12T00:57:33.388Z,26.36
2022-08-12T01:02:40.916Z,26.28
2022-08-12T01:07:47.785Z,26.19
2022-08-12T01:12:55.021Z,26.11
2022-08-12T01:18:02.298Z,26.04
2022-08-12T01:23:09.483Z,25.95
2022-08-12T01:28:16.677Z,25.90
2022-08-12T01:33:23.938Z,25.88
2022-08-12T01:38:31.134Z,25.77
2022-08-12T01:43:38.308Z,25.69
2022-08-12T01:48:45.506Z,25.68
2022-08-12T01:53:52.757Z,25.65
2022-08-12T01:58:59.980Z,25.57
2022-08-12T02:04:07.184Z,25.50
2022-08-12T02:09:14.433Z,25.39
2022-08-12T02:14:21.639Z,25.32
2022-08-12T02:19:28.897Z,25.28
2022-08-12T02:24:36.125Z,25.18
2022-08-12T02:29:43.403Z,25.21
2022-08-12T02:34:50.605Z,25.09
2022-08-12T02:39:59.792Z,25.10
2022-08-12T02:45:06.951Z,25.04
2022-08-12T02:50:14.113Z,25.03
2022-08-12T02:55:28.741Z,25.01
2022-08-12T03:00:28.558Z,24.97
2022-08-12T03:05:44.231Z,24.95
2022-08-12T03:10:42.989Z,24.89
2022-08-12T03:15:50.185Z,24.89
2022-08-12T03:20:57.339Z,24.76
2022-08-12T03:26:04.534Z,24.73
2022-08-12T03:31:11.709Z,24.74
2022-08-12T03:36:18.898Z,24.74
2022-08-12T03:41:26.098Z,24.72
2022-08-12T03:46:33.416Z,24.64
2022-08-12T03:51:40.660Z,24.55
2022-08-12T03:56:47.877Z,24.59
2022-08-12T04:01:55.143Z,24.56
2022-08-12T04:07:02.400Z,24.44
2022-08-12T04:12:09.822Z,24.39
2022-08-12T04:17:17.002Z,24.45
2022-08-12T04:22:24.243Z,24.45
2022-08-12T04:27:32.210Z,24.41
2022-08-12T04:32:44.136Z,24.35
2022-08-12T04:37:59.813Z,24.29
2022-08-12T04:42:53.323Z,24.28
2022-08-12T04:48:00.515Z,24.10
2022-08-12T04:53:08.588Z,24.11
2022-08-12T04:58:15.040Z,24.19
2022-08-12T05:03:22.066Z,24.09
2022-08-12T05:08:29.319Z,24.18
2022-08-12T05:13:36.523Z,24.24
2022-08-12T05:18:45.764Z,24.29
2022-08-12T05:23:51.003Z,24.30
2022-08-12T05:28:58.219Z,24.28
2022-08-12T05:34:05.475Z,24.33
2022-08-12T05:39:12.808Z,24.34
2022-08-12T05:44:19.933Z,24.38
2022-08-12T05:49:27.135Z,24.42
2022-08-12T05:54:54.720Z,24.40
2022-08-12T05:59:41.593Z,24.40
2022-08-12T06:04:48.785Z,24.38
2022-08-12T06:09:55.960Z,24.29
2022-08-12T06:15:03.178Z,24.15
2022-08-12T06:20:27.147Z,24.16
2022-08-12T06:25:19.199Z,24.18
2022-08-12T06:30:36.887Z,24.20
2022-08-12T06:35:49.254Z,24.10
2022-08-12T06:40:39.294Z,24.06
2022-08-12T06:45:47.107Z,24.02
2022-08-12T06:50:53.718Z,24.01
2022-08-12T06:56:00.959Z,23.98
2022-08-12T07:01:08.397Z,24.00
2022-08-12T07:06:15.527Z,24.14
2022-08-12T07:11:22.766Z,24.08
2022-08-12T07:16:29.993Z,24.14
2022-08-12T07:21:59.824Z,24.16
2022-08-12T07:26:44.541Z,24.14
2022-08-12T07:31:51.808Z,24.11
2022-08-12T07:36:59.056Z,24.11
2022-08-12T07:42:06.312Z,24.16
2022-08-12T07:47:13.588Z,24.14
2022-08-12T07:52:20.783Z,24.15
2022-08-12T07:57:27.974Z,24.14
2022-08-12T08:02:35.215Z,24.17
2022-08-12T08:07:42.428Z,24.15
2022-08-12T08:12:49.604Z,24.33
2022-08-12T08:17:56.789Z,24.43
2022-08-12T08:23:04.006Z,24.47
2022-08-12T08:28:11.213Z,24.53
2022-08-12T08:33:23.759Z,24.56
2022-08-12T08:38:32.177Z,24.69
2022-08-12T08:43:44.186Z,24.66
2022-08-12T08:48:40.110Z,24.73
2022-08-12T08:53:48.322Z,24.77
2022-08-12T08:58:54.437Z,24.77
2022-08-12T09:05:09.417Z,24.83
2022-08-12T09:09:13.376Z,24.90
2022-08-12T09:14:19.117Z,24.94
2022-08-12T09:24:30.526Z,24.98
2022-08-12T09:30:11.490Z,25.08
2022-08-12T09:34:50.720Z,25.12
2022-08-12T09:40:05.533Z,25.17
2022-08-12T09:45:18.473Z,25.16
2022-08-12T09:50:06.535Z,25.23
2022-08-12T09:56:06.219Z,25.22
2022-08-12T10:00:28.390Z,25.34
2022-08-12T10:06:26.176Z,25.42
2022-08-12T10:10:40.342Z,25.46
2022-08-12T10:16:00.796Z,25.62
2022-08-12T10:20:49.809Z,25.68
2022-08-12T10:26:34.882Z,25.73
2022-08-12T10:31:04.990Z,25.79
2022-08-12T10:36:11.500Z,25.80
2022-08-12T10:41:21.111Z,25.88
2022-08-12T10:46:31.348Z,25.90
2022-08-12T10:52:02.931Z,25.97
2022-08-12T10:56:41.146Z,26.02
2022-08-12T11:04:17.430Z,26.10
2022-08-12T11:07:06.106Z,26.13
2022-08-12T11:12:34.643Z,26.17
2022-08-12T11:17:34.857Z,26.16
2022-08-12T11:22:18.157Z,26.15
2022-08-12T11:27:24.429Z,26.19
2022-08-12T11:32:31.596Z,26.24
2022-08-12T11:37:59.122Z,26.30
2022-08-12T11:42:47.225Z,26.28
2022-08-12T11:47:55.637Z,26.33
2022-08-12T11:53:01.489Z,26.37
2022-08-12T12:00:20.555Z,26.39
2022-08-12T12:03:17.361Z,26.41
2022-08-12T12:08:37.945Z,26.46
2022-08-12T12:14:08.553Z,26.47
2022-08-12T12:18:37.496Z,26.53
2022-08-12T12:23:44.737Z,26.52
2022-08-12T12:28:54.218Z,26.53
2022-08-12T12:33:59.195Z,26.57
2022-08-12T12:39:06.625Z,26.56
2022-08-12T12:44:13.614Z,26.57
2022-08-12T12:49:20.815Z,26.58
2022-08-12T12:54:28.997Z,26.62
2022-08-12T12:59:56.997Z,26.65
2022-08-12T13:04:42.525Z,26.69
2022-08-12T13:09:50.615Z,26.78
2022-08-12T13:14:57.787Z,26.83
2022-08-12T13:20:05.082Z,26.93
2022-08-12T13:25:12.283Z,26.93
2022-08-12T13:30:19.535Z,26.98
2022-08-12T13:35:33.584Z,27.01
2022-08-12T13:40:33.985Z,27.06
2022-08-12T13:45:41.185Z,27.10
2022-08-12T13:50:48.416Z,27.16
2022-08-12T13:56:01.616Z,27.21
2022-08-12T14:01:02.911Z,27.17
2022-08-12T14:06:10.204Z,27.23
2022-08-12T14:11:17.447Z,27.27
2022-08-12T14:16:46.882Z,27.38
2022-08-12T14:21:31.862Z,27.44
2022-08-12T14:26:39.160Z,27.52
2022-08-12T14:31:46.195Z,27.50
2022-08-12T14:36:53.438Z,27.59
2022-08-12T14:42:00.603Z,27.68
2022-08-12T14:47:08.667Z,27.70
2022-08-12T14:52:55.558Z,27.79
2022-08-12T14:57:23.901Z,27.78
2022-08-12T15:02:29.436Z,27.78
2022-08-12T15:07:52.260Z,27.76
2022-08-12T15:12:43.882Z,27.80
2022-08-12T15:17:51.354Z,27.79
2022-08-12T15:22:58.389Z,27.82
2022-08-12T15:28:06.169Z,27.84
2022-08-12T15:33:18.756Z,27.86
2022-08-12T15:38:20.184Z,27.89
2022-08-12T15:43:51.199Z,27.91
2022-08-12T15:48:34.392Z,27.97
2022-08-12T15:53:41.594Z,28.03
2022-08-12T15:58:48.757Z,28.05
2022-08-12T16:03:59.971Z,28.04
2022-08-12T16:09:03.232Z,28.14
2022-08-12T16:14:10.555Z,28.14
2022-08-12T16:19:19.072Z,28.16
2022-08-12T16:24:24.824Z,28.17
2022-08-12T16:29:52.474Z,28.16
2022-08-12T16:34:54.476Z,28.13
2022-08-12T16:40:00.359Z,28.17
2022-08-12T16:44:53.748Z,28.19
2022-08-12T16:50:00.934Z,28.16
2022-08-12T16:55:08.128Z,28.20
2022-08-12T17:00:15.370Z,28.14
2022-08-12T17:05:22.646Z,28.20
2022-08-12T17:10:35.842Z,28.15
2022-08-12T17:15:56.769Z,28.16
2022-08-12T17:20:44.483Z,28.19
2022-08-12T17:25:51.558Z,28.17
2022-08-12T17:31:00.240Z,28.18
2022-08-12T17:36:06.008Z,28.17
2022-08-12T17:41:23.299Z,28.10
2022-08-12T17:46:24.045Z,28.16
2022-08-12T17:51:31.649Z,28.09
2022-08-12T17:56:34.888Z,28.09
2022-08-12T18:01:42.179Z,28.02
2022-08-12T18:06:50.653Z,28.00
2022-08-12T18:12:04.643Z,28.02
2022-08-12T18:17:04.038Z,27.96
2022-08-12T18:22:11.287Z,27.88
2022-08-12T18:27:29.760Z,27.84
2022-08-12T18:32:44.043Z,27.83
2022-08-12T18:37:42.122Z,27.80
2022-08-12T18:42:40.374Z,27.76
2022-08-12T18:47:51.855Z,27.71
2022-08-12T18:52:54.891Z,27.66
2022-08-12T18:58:06.741Z,27.63
2022-08-12T19:03:38.654Z,27.67
2022-08-12T19:08:16.553Z,27.57
2022-08-12T19:13:25.151Z,27.60
2022-08-12T19:18:32.960Z,27.57
2022-08-12T19:23:38.924Z,27.56
2022-08-12T19:28:46.286Z,27.60
2022-08-12T19:34:25.516Z,27.58
2022-08-12T19:39:01.055Z,27.66
2022-08-12T19:44:18.426Z,27.70
2022-08-12T19:49:16.044Z,27.64
2022-08-12T19:54:23.593Z,27.64
2022-08-12T19:59:42.990Z,27.61
2022-08-12T20:04:38.323Z,27.55
2022-08-12T20:09:45.582Z,27.53
2022-08-12T20:14:52.850Z,27.50
2022-08-12T20:20:16.885Z,27.53
2022-08-12T20:25:07.484Z,27.53
2022-08-12T20:30:14.623Z,27.50
2022-08-12T20:35:24.664Z,27.52
2022-08-12T20:40:29.183Z,27.55
2022-08-12T20:45:44.984Z,27.56
2022-08-12T20:50:47.640Z,27.63
2022-08-12T20:55:56.783Z,27.63
2022-08-12T21:00:57.857Z,27.56
2022-08-12T21:06:11.780Z,27.58
2022-08-12T21:11:12.247Z,27.61
2022-08-12T21:16:35.943Z,27.56
2022-08-12T21:21:46.881Z,27.46
2022-08-12T21:26:33.818Z,27.45
2022-08-12T21:32:39.613Z,27.46
2022-08-12T21:36:49.498Z,27.42
2022-08-12T21:41:55.390Z,27.44
2022-08-12T21:47:02.628Z,27.42
2022-08-12T21:52:09.859Z,27.47
2022-08-12T21:57:17.127Z,27.44
2022-08-12T22:02:24.409Z,27.40
2022-08-12T22:07:31.588Z,27.42
2022-08-12T22:12:38.783Z,27.37
2022-08-12T22:17:50.504Z,27.37
2022-08-12T22:22:55.898Z,27.41
2022-08-12T22:28:00.477Z,27.45
2022-08-12T22:33:07.989Z,27.47
2022-08-12T22:38:17.265Z,27.43
2022-08-12T22:43:22.078Z,27.42
2022-08-12T22:48:30.727Z,27.42
2022-08-12T22:53:36.755Z,27.43
2022-08-12T22:58:43.686Z,27.39
2022-08-12T23:03:53.989Z,27.31
2022-08-12T23:08:58.097Z,27.30
2022-08-12T23:14:05.326Z,27.22
2022-08-12T23:19:17.921Z,27.20
2022-08-12T23:24:19.725Z,27.20
2022-08-12T23:29:43.452Z,27.22
2022-08-12T23:34:34.112Z,27.25
2022-08-12T23:40:13.261Z,27.11
2022-08-12T23:44:52.326Z,27.11
2022-08-12T23:49:59.764Z,27.08
2022-08-12T23:55:23.227Z,27.04
